Time;durP1;ratioP1;P1;durP2;ratioP2;P2;SDS_P1;SDS_P2;PMS_P1;PMS_P2;Temp;Humidity;BMP_temperature;BMP_pressure;BME280_temperature;BME280_humidity;BME280_pressure;Samples;Min_cycle;Max_cycle;Signal;HPM_P1;HPM_P2
2021/08/29 00:01:11;;;;;;;4.75;2.97;;;;;;;;;;5078423;28;20138;-87
2021/08/29 00:03:37;;;;;;;4.20;3.28;;;;;;;;;;5077206;28;20031;-87
2021/08/29 00:06:03;;;;;;;5.50;3.38;;;;;;;;;;5077912;28;20050;-87
2021/08/29 00:08:29;;;;;;;4.50;3.10;;;;;;;;;;5078015;28;20397;-88
2021/08/29 00:10:55;;;;;;;3.95;3.55;;;;;;;;;;5078270;28;20021;-88
2021/08/29 00:16:25;;;;;;;5.47;3.60;;;;;;;;;;5077868;28;20075;-88
2021/08/29 00:18:51;;;;;;;4.57;3.90;;;;;;;;;;5078027;28;20017;-88
2021/08/29 00:21:17;;;;;;;6.47;4.40;;;;;;;;;;5077709;28;20028;-88
2021/08/29 00:23:43;;;;;;;5.70;4.38;;;;;;;;;;5070410;28;20037;-88
2021/08/29 00:26:09;;;;;;;5.90;4.47;;;;;;;;;;5057604;28;20029;-88
2021/08/29 00:28:35;;;;;;;5.93;4.60;;;;;;;;;;5057655;28;20423;-89
2021/08/29 00:31:01;;;;;;;5.53;4.65;;;;;;;;;;5040294;28;20060;-87
2021/08/29 00:33:27;;;;;;;5.88;5.20;;;;;;;;;;5040133;28;20064;-88
2021/08/29 00:35:53;;;;;;;5.85;4.70;;;;;;;;;;5057723;28;20315;-87
2021/08/29 00:38:20;;;;;;;6.88;5.07;;;;;;;;;;5057822;28;20025;-88
2021/08/29 00:40:47;;;;;;;6.32;5.38;;;;;;;;;;5057818;28;20107;-88
2021/08/29 00:43:13;;;;;;;5.90;5.03;;;;;;;;;;5039995;28;20060;-88
2021/08/29 00:45:39;;;;;;;5.78;5.28;;;;;;;;;;5057673;28;20021;-88
2021/08/29 00:48:12;;;;;;;6.55;5.78;;;;;;;;;;5040141;28;20029;-88
2021/08/29 00:50:39;;;;;;;10.18;6.10;;;;;;;;;;5057465;28;20028;-88
2021/08/29 00:53:07;;;;;;;6.70;5.43;;;;;;;;;;5039788;28;20068;-87
2021/08/29 00:55:35;;;;;;;6.07;4.82;;;;;;;;;;5057610;28;20033;-87
2021/08/29 00:58:01;;;;;;;6.70;5.30;;;;;;;;;;5039867;28;20017;-87
2021/08/29 01:00:27;;;;;;;10.05;5.32;;;;;;;;;;5057344;28;20029;-87
2021/08/29 01:02:54;;;;;;;6.32;5.50;;;;;;;;;;5057380;28;20399;-87
2021/08/29 01:05:27;;;;;;;8.27;5.63;;;;;;;;;;5057205;28;20025;-87
2021/08/29 01:08:04;;;;;;;6.70;4.93;;;;;;;;;;5040094;28;20040;-89
2021/08/29 01:10:36;;;;;;;6.53;5.20;;;;;;;;;;5039823;28;20304;-88
2021/08/29 01:16:07;;;;;;;7.00;5.15;;;;;;;;;;5061330;28;20087;-89
2021/08/29 01:18:34;;;;;;;7.65;5.50;;;;;;;;;;5061507;28;20029;-89
2021/08/29 01:21:03;;;;;;;7.30;4.80;;;;;;;;;;5061383;28;20021;-89
2021/08/29 01:23:30;;;;;;;4.85;4.07;;;;;;;;;;5043293;28;20045;-88
2021/08/29 01:25:59;;;;;;;5.05;4.55;;;;;;;;;;5043691;28;20029;-88
2021/08/29 01:31:29;;;;;;;7.35;4.63;;;;;;;;;;5061283;28;20024;-89
2021/08/29 01:33:58;;;;;;;5.72;4.57;;;;;;;;;;5061162;28;20028;-88
2021/08/29 01:36:24;;;;;;;6.18;4.43;;;;;;;;;;5043294;28;20112;-88
2021/08/29 01:38:51;;;;;;;4.75;4.35;;;;;;;;;;5061149;28;20029;-89
2021/08/29 01:41:18;;;;;;;6.38;3.72;;;;;;;;;;5060990;28;20114;-89
2021/08/29 01:43:44;;;;;;;4.55;4.05;;;;;;;;;;5061048;28;20043;-87
2021/08/29 01:46:11;;;;;;;6.22;4.97;;;;;;;;;;5043135;28;20052;-87
2021/08/29 01:48:44;;;;;;;6.13;4.90;;;;;;;;;;5060562;28;20033;-87
2021/08/29 01:51:10;;;;;;;5.15;4.65;;;;;;;;;;5060523;28;20021;-87
2021/08/29 01:53:37;;;;;;;5.90;5.30;;;;;;;;;;5060492;28;20037;-88
2021/08/29 01:56:03;;;;;;;5.60;5.10;;;;;;;;;;5060631;28;20116;-87
2021/08/29 01:58:29;;;;;;;6.55;4.43;;;;;;;;;;5060754;28;20048;-89
2021/08/29 02:01:00;;;;;;;4.95;4.45;;;;;;;;;;5043000;28;20021;-89
2021/08/29 02:03:30;;;;;;;5.35;4.70;;;;;;;;;;5043189;28;20032;-89
2021/08/29 02:05:59;;;;;;;6.32;4.93;;;;;;;;;;5060606;28;20049;-88
2021/08/29 02:08:26;;;;;;;5.10;4.60;;;;;;;;;;5060647;28;20029;-88
2021/08/29 02:10:53;;;;;;;6.05;4.80;;;;;;;;;;5060487;28;20079;-88
2021/08/29 02:16:23;;;;;;;7.93;5.50;;;;;;;;;;5059924;28;20043;-88
2021/08/29 02:18:51;;;;;;;6.13;4.90;;;;;;;;;;5060141;28;20024;-88
2021/08/29 02:21:18;;;;;;;5.93;5.28;;;;;;;;;;5060398;28;20411;-89
2021/08/29 02:23:45;;;;;;;5.20;4.70;;;;;;;;;;5059670;28;20057;-89
2021/08/29 02:26:12;;;;;;;6.13;5.15;;;;;;;;;;5041474;28;20070;-90
2021/08/29 02:28:38;;;;;;;6.28;5.10;;;;;;;;;;5059782;28;20029;-88
2021/08/29 02:31:04;;;;;;;5.70;5.05;;;;;;;;;;5060067;28;20029;-88
2021/08/29 02:33:30;;;;;;;5.95;4.68;;;;;;;;;;5060010;28;20029;-89
2021/08/29 02:35:59;;;;;;;6.38;4.78;;;;;;;;;;5059642;28;20025;-88
2021/08/29 02:38:25;;;;;;;8.38;5.70;;;;;;;;;;5060094;28;20021;-90
2021/08/29 02:40:53;;;;;;;5.40;4.80;;;;;;;;;;5059676;28;20399;-89
2021/08/29 02:46:23;;;;;;;5.63;4.95;;;;;;;;;;5059660;28;20043;-90
2021/08/29 02:48:50;;;;;;;8.38;5.80;;;;;;;;;;5041958;28;20017;-91
2021/08/29 02:51:16;;;;;;;6.88;5.57;;;;;;;;;;5042039;28;20017;-90
2021/08/29 02:53:44;;;;;;;5.82;5.20;;;;;;;;;;5059388;28;20032;-91
2021/08/29 02:56:10;;;;;;;5.88;5.28;;;;;;;;;;5059486;28;20421;-89
2021/08/29 03:01:40;;;;;;;9.20;4.90;;;;;;;;;;5070252;28;20032;-96
2021/08/29 03:04:07;;;;;;;6.28;5.32;;;;;;;;;;5070445;28;20025;-95
2021/08/29 03:06:33;;;;;;;5.97;5.35;;;;;;;;;;5064684;28;20066;-94
2021/08/29 03:08:59;;;;;;;5.85;5.35;;;;;;;;;;5062418;28;20045;-94
2021/08/29 03:11:26;;;;;;;7.75;5.40;;;;;;;;;;5064712;28;20025;-94
2021/08/29 03:13:52;;;;;;;7.00;5.85;;;;;;;;;;5066831;28;20029;-94
2021/08/29 03:16:18;;;;;;;7.35;5.90;;;;;;;;;;5046100;28;20425;-92
2021/08/29 03:18:45;;;;;;;7.72;5.85;;;;;;;;;;5041505;28;20036;-89
2021/08/29 03:21:11;;;;;;;6.82;6.13;;;;;;;;;;5041568;28;20025;-88
2021/08/29 03:23:38;;;;;;;6.88;6.10;;;;;;;;;;5041086;28;20084;-89
2021/08/29 03:26:04;;;;;;;8.73;6.15;;;;;;;;;;5059178;28;20129;-89
2021/08/29 03:28:30;;;;;;;7.00;5.95;;;;;;;;;;5041359;28;20031;-89
2021/08/29 03:30:56;;;;;;;9.13;6.75;;;;;;;;;;5059044;28;20028;-89
2021/08/29 03:33:24;;;;;;;7.43;6.38;;;;;;;;;;5058806;28;20029;-90
2021/08/29 03:35:54;;;;;;;7.75;6.10;;;;;;;;;;5058741;28;20292;-89
2021/08/29 03:38:21;;;;;;;10.30;6.65;;;;;;;;;;5040904;28;20399;-89
2021/08/29 03:40:51;;;;;;;7.28;6.57;;;;;;;;;;5058523;28;20410;-88
2021/08/29 03:43:18;;;;;;;8.77;6.45;;;;;;;;;;5040884;28;20029;-89
2021/08/29 03:45:44;;;;;;;8.90;7.03;;;;;;;;;;5058022;28;20043;-87
2021/08/29 03:48:11;;;;;;;7.75;6.55;;;;;;;;;;5058351;28;20120;-87
2021/08/29 03:50:37;;;;;;;7.57;6.60;;;;;;;;;;5058339;28;20029;-86
2021/08/29 03:53:04;;;;;;;8.13;6.72;;;;;;;;;;5058392;28;20094;-86
2021/08/29 03:55:30;;;;;;;6.95;6.25;;;;;;;;;;5058444;28;20108;-89
2021/08/29 03:57:57;;;;;;;8.35;6.10;;;;;;;;;;5058442;28;20021;-88
2021/08/29 04:00:23;;;;;;;9.75;7.10;;;;;;;;;;5058519;28;20079;-89
2021/08/29 04:02:49;;;;;;;7.70;6.82;;;;;;;;;;5058331;28;20029;-88
2021/08/29 04:05:16;;;;;;;9.05;6.20;;;;;;;;;;5058295;28;20036;-89
2021/08/29 04:07:43;;;;;;;8.80;6.28;;;;;;;;;;5040415;28;20067;-88
2021/08/29 04:10:10;;;;;;;7.40;6.57;;;;;;;;;;5057927;28;20078;-89
2021/08/29 04:12:37;;;;;;;7.68;6.40;;;;;;;;;;5057613;28;20032;-89
2021/08/29 04:15:04;;;;;;;7.05;6.45;;;;;;;;;;5040457;28;20029;-89
2021/08/29 04:17:32;;;;;;;8.68;6.70;;;;;;;;;;5057866;28;20021;-89
2021/08/29 04:19:58;;;;;;;7.35;6.30;;;;;;;;;;5057793;28;20521;-91
2021/08/29 04:22:24;;;;;;;8.80;6.50;;;;;;;;;;5057498;28;20029;-89
2021/08/29 04:24:50;;;;;;;8.10;6.40;;;;;;;;;;5058043;28;20029;-89
2021/08/29 04:27:17;;;;;;;6.70;5.97;;;;;;;;;;5058051;28;20021;-90
2021/08/29 04:32:49;;;;;;;7.05;6.35;;;;;;;;;;5057871;28;20035;-88
2021/08/29 04:35:15;;;;;;;8.00;7.15;;;;;;;;;;5040065;28;20040;-88
2021/08/29 04:37:41;;;;;;;7.00;6.30;;;;;;;;;;5040109;28;20112;-90
2021/08/29 04:40:07;;;;;;;7.80;6.75;;;;;;;;;;5057866;28;20029;-89
2021/08/29 04:42:34;;;;;;;7.85;7.03;;;;;;;;;;5057473;28;20025;-88
2021/08/29 04:45:00;;;;;;;7.15;6.53;;;;;;;;;;5040074;28;20131;-88
2021/08/29 04:47:26;;;;;;;11.18;6.55;;;;;;;;;;5040028;28;20025;-88
2021/08/29 04:49:52;;;;;;;8.88;6.40;;;;;;;;;;5057209;28;20417;-90
2021/08/29 04:52:18;;;;;;;8.88;6.38;;;;;;;;;;5039982;28;20071;-88
2021/08/29 04:54:44;;;;;;;7.00;6.30;;;;;;;;;;5057773;28;20029;-88
2021/08/29 04:57:10;;;;;;;6.97;5.88;;;;;;;;;;5057520;28;20391;-91
2021/08/29 04:59:36;;;;;;;6.15;5.55;;;;;;;;;;5057371;28;20498;-90
2021/08/29 05:02:02;;;;;;;7.40;5.85;;;;;;;;;;5039868;28;20032;-90
2021/08/29 05:04:28;;;;;;;8.55;6.55;;;;;;;;;;5039836;28;20040;-88
2021/08/29 05:06:54;;;;;;;8.07;6.70;;;;;;;;;;5032239;28;20036;-90
2021/08/29 05:09:20;;;;;;;7.85;6.93;;;;;;;;;;5037936;28;20017;-90
2021/08/29 05:11:46;;;;;;;6.85;6.15;;;;;;;;;;5057557;28;20112;-90
2021/08/29 05:14:12;;;;;;;7.80;6.95;;;;;;;;;;5057164;28;20028;-92
2021/08/29 05:16:38;;;;;;;7.82;6.65;;;;;;;;;;5039416;28;20032;-91
2021/08/29 05:19:04;;;;;;;8.90;6.40;;;;;;;;;;5057014;28;20465;-85
2021/08/29 05:21:30;;;;;;;8.70;6.43;;;;;;;;;;5057393;28;20049;-85
2021/08/29 05:23:56;;;;;;;7.82;6.65;;;;;;;;;;5056944;28;20045;-84
2021/08/29 05:26:22;;;;;;;7.68;6.15;;;;;;;;;;5043366;28;20120;-85
2021/08/29 05:28:48;;;;;;;7.38;6.68;;;;;;;;;;5036951;28;20426;-85
2021/08/29 05:31:14;;;;;;;8.77;6.78;;;;;;;;;;5019521;28;20026;-84
2021/08/29 05:33:40;;;;;;;7.18;6.38;;;;;;;;;;5019695;28;20030;-85
2021/08/29 05:36:06;;;;;;;10.90;6.60;;;;;;;;;;5036955;28;20408;-85
2021/08/29 05:38:32;;;;;;;7.53;6.63;;;;;;;;;;5036946;28;20423;-85
2021/08/29 05:40:58;;;;;;;8.48;7.22;;;;;;;;;;5019617;28;20470;-86
2021/08/29 05:43:25;;;;;;;8.48;6.68;;;;;;;;;;5019468;28;20060;-86
2021/08/29 05:45:51;;;;;;;7.53;6.45;;;;;;;;;;5036953;28;20044;-86
2021/08/29 05:48:17;;;;;;;8.77;7.07;;;;;;;;;;5052736;28;20025;-87
2021/08/29 05:50:43;;;;;;;8.32;6.40;;;;;;;;;;5057206;28;20032;-87
2021/08/29 05:53:09;;;;;;;7.70;6.55;;;;;;;;;;5039295;28;20418;-85
2021/08/29 05:55:35;;;;;;;7.95;6.40;;;;;;;;;;5056961;28;20033;-85
2021/08/29 05:58:01;;;;;;;9.07;6.53;;;;;;;;;;5039209;28;20063;-84
2021/08/29 06:00:27;;;;;;;7.63;6.70;;;;;;;;;;5057357;28;20032;-84
2021/08/29 06:02:53;;;;;;;10.40;7.18;;;;;;;;;;5060214;28;20184;-87
2021/08/29 06:05:19;;;;;;;7.80;7.00;;;;;;;;;;5042836;28;20033;-87
2021/08/29 06:07:45;;;;;;;7.80;7.07;;;;;;;;;;5060626;28;20036;-87
2021/08/29 06:10:12;;;;;;;8.13;6.30;;;;;;;;;;5042686;28;20057;-88
2021/08/29 06:12:38;;;;;;;7.25;6.55;;;;;;;;;;5042372;28;20028;-89
2021/08/29 06:18:08;;;;;;;8.90;6.60;;;;;;;;;;5040410;28;20048;-88
2021/08/29 06:20:34;;;;;;;9.27;6.45;;;;;;;;;;5022764;28;20499;-89
2021/08/29 06:23:00;;;;;;;9.73;6.63;;;;;;;;;;5022447;28;20424;-89
2021/08/29 06:25:26;;;;;;;7.95;7.15;;;;;;;;;;5040107;28;20117;-89
2021/08/29 06:27:52;;;;;;;8.07;7.28;;;;;;;;;;5040239;28;20033;-88
2021/08/29 06:30:18;;;;;;;8.80;7.32;;;;;;;;;;5039990;28;20036;-88
2021/08/29 06:32:44;;;;;;;9.93;7.35;;;;;;;;;;5042924;28;20021;-89
2021/08/29 06:35:11;;;;;;;8.52;7.63;;;;;;;;;;5045525;28;20021;-88
2021/08/29 06:37:37;;;;;;;11.07;7.25;;;;;;;;;;5022443;28;20021;-88
2021/08/29 06:40:03;;;;;;;8.30;7.40;;;;;;;;;;5039966;28;20021;-87
2021/08/29 06:42:29;;;;;;;8.18;7.43;;;;;;;;;;5022291;28;20051;-87
2021/08/29 06:47:59;;;;;;;8.75;7.47;;;;;;;;;;5039785;28;20025;-87
2021/08/29 06:50:25;;;;;;;9.13;7.43;;;;;;;;;;5039555;28;20023;-87
2021/08/29 06:52:51;;;;;;;11.13;8.15;;;;;;;;;;5039672;28;20056;-86
2021/08/29 06:55:17;;;;;;;9.70;7.00;;;;;;;;;;5039532;28;20038;-86
2021/08/29 06:57:43;;;;;;;10.85;7.80;;;;;;;;;;5039384;28;20022;-86
2021/08/29 07:00:24;;;;;;;8.57;6.70;;;;;;;;;;5039393;28;20021;-85
2021/08/29 07:02:50;;;;;;;8.10;7.30;;;;;;;;;;5039591;28;20413;-86
2021/08/29 07:05:16;;;;;;;9.70;7.72;;;;;;;;;;5021806;28;20096;-85
2021/08/29 07:07:42;;;;;;;8.50;7.43;;;;;;;;;;5039121;28;20474;-85
2021/08/29 07:10:08;;;;;;;15.73;12.55;;;;;;;;;;5039575;28;20052;-86
2021/08/29 07:12:35;;;;;;;17.13;12.07;;;;;;;;;;5038338;28;20075;-84
2021/08/29 07:15:01;;;;;;;20.08;15.65;;;;;;;;;;5039263;28;20028;-88
2021/08/29 07:17:27;;;;;;;10.27;9.00;;;;;;;;;;5054568;28;20043;-86
2021/08/29 07:19:53;;;;;;;20.45;16.35;;;;;;;;;;5041387;28;20048;-84
2021/08/29 07:22:19;;;;;;;15.93;13.50;;;;;;;;;;5058779;28;20029;-84
2021/08/29 07:24:45;;;;;;;17.23;13.98;;;;;;;;;;5041115;28;20049;-87
2021/08/29 07:27:11;;;;;;;25.63;19.95;;;;;;;;;;5041407;28;20419;-87
2021/08/29 07:29:37;;;;;;;32.88;23.27;;;;;;;;;;5058829;28;20461;-87
2021/08/29 07:32:04;;;;;;;12.18;10.90;;;;;;;;;;5063655;28;20057;-89
2021/08/29 07:34:30;;;;;;;33.95;25.75;;;;;;;;;;5053435;28;20025;-88
2021/08/29 07:36:56;;;;;;;16.60;12.65;;;;;;;;;;5075017;28;20021;-86
2021/08/29 07:39:22;;;;;;;11.75;10.02;;;;;;;;;;5078455;28;20100;-88
2021/08/29 07:41:48;;;;;;;51.65;36.90;;;;;;;;;;5078051;28;20103;-83
2021/08/29 07:44:14;;;;;;;16.38;12.70;;;;;;;;;;5062240;28;20025;-89
2021/08/29 07:46:40;;;;;;;24.67;17.85;;;;;;;;;;5058502;28;20502;-87
2021/08/29 07:49:06;;;;;;;12.82;11.45;;;;;;;;;;5041027;28;20052;-89
2021/08/29 07:51:32;;;;;;;25.95;17.63;;;;;;;;;;5058540;28;20067;-90
2021/08/29 07:53:58;;;;;;;9.63;8.65;;;;;;;;;;5058161;28;20051;-88
2021/08/29 07:56:25;;;;;;;17.77;15.30;;;;;;;;;;5040730;28;20033;-87
2021/08/29 08:01:54;;;;;;;11.75;10.30;;;;;;;;;;5058335;28;20492;-89
2021/08/29 08:04:20;;;;;;;23.33;17.63;;;;;;;;;;5058180;28;20052;-88
2021/08/29 08:06:46;;;;;;;13.05;10.90;;;;;;;;;;5057781;28;20056;-88
2021/08/29 08:09:12;;;;;;;12.40;10.02;;;;;;;;;;5058868;28;20032;-89
2021/08/29 08:11:38;;;;;;;13.48;11.13;;;;;;;;;;5054801;28;20034;-87
2021/08/29 08:17:08;;;;;;;9.30;8.38;;;;;;;;;;5053178;28;20044;-87
2021/08/29 08:19:35;;;;;;;13.73;11.93;;;;;;;;;;5057875;28;20028;-88
2021/08/29 08:22:01;;;;;;;15.40;11.77;;;;;;;;;;5058063;28;20351;-89
2021/08/29 08:24:27;;;;;;;10.27;8.85;;;;;;;;;;5039487;28;20144;-88
2021/08/29 08:26:53;;;;;;;7.97;7.18;;;;;;;;;;5057821;28;20063;-89
2021/08/29 08:33:00;;;;;;;10.90;8.65;;;;;;;;;;5057993;28;20023;-88
2021/08/29 08:35:26;;;;;;;13.20;10.38;;;;;;;;;;5057468;28;20029;-92
2021/08/29 08:37:52;;;;;;;10.10;8.40;;;;;;;;;;5040108;28;20054;-85
2021/08/29 08:40:22;;;;;;;10.63;9.52;;;;;;;;;;5039706;28;20159;-82
2021/08/29 08:42:48;;;;;;;11.30;9.40;;;;;;;;;;5057001;28;20036;-85
2021/08/29 08:45:51;;;;;;;19.02;15.07;;;;;;;;;;5057503;28;20048;-86
2021/08/29 08:48:20;;;;;;;8.57;7.68;;;;;;;;;;5039978;28;20044;-86
2021/08/29 08:50:50;;;;;;;7.60;6.55;;;;;;;;;;5057459;28;20029;-85
2021/08/29 08:53:21;;;;;;;12.07;8.13;;;;;;;;;;5057696;28;20036;-86
2021/08/29 08:55:48;;;;;;;7.85;7.15;;;;;;;;;;5057361;28;20064;-86
2021/08/29 08:58:16;;;;;;;9.00;6.65;;;;;;;;;;5057769;28;20315;-86
2021/08/29 09:00:44;;;;;;;6.95;6.22;;;;;;;;;;5039554;28;20053;-86
2021/08/29 09:03:10;;;;;;;7.10;6.40;;;;;;;;;;5039819;28;20021;-87
2021/08/29 09:05:39;;;;;;;11.07;6.50;;;;;;;;;;5057222;28;20067;-87
2021/08/29 09:08:08;;;;;;;9.98;7.93;;;;;;;;;;5057644;28;20044;-86
2021/08/29 09:10:34;;;;;;;7.32;5.55;;;;;;;;;;5057250;28;20025;-86
2021/08/29 09:13:05;;;;;;;5.47;4.97;;;;;;;;;;5057568;28;20035;-85
2021/08/29 09:15:31;;;;;;;5.63;5.05;;;;;;;;;;5057376;28;20071;-86
2021/08/29 09:17:57;;;;;;;5.20;4.80;;;;;;;;;;5057158;28;20411;-85
2021/08/29 09:20:25;;;;;;;5.90;5.30;;;;;;;;;;5057055;28;20047;-86
2021/08/29 09:22:53;;;;;;;5.70;5.07;;;;;;;;;;5056919;28;20128;-86
2021/08/29 09:25:21;;;;;;;5.40;4.90;;;;;;;;;;5057444;28;20382;-86
2021/08/29 09:27:48;;;;;;;7.85;5.35;;;;;;;;;;5057279;28;20029;-86
2021/08/29 09:30:15;;;;;;;6.45;5.50;;;;;;;;;;5039583;28;20033;-86
2021/08/29 09:32:48;;;;;;;8.32;5.60;;;;;;;;;;5039437;28;20083;-86
2021/08/29 09:35:15;;;;;;;5.65;5.00;;;;;;;;;;5059182;28;20021;-86
2021/08/29 09:37:42;;;;;;;5.88;5.30;;;;;;;;;;5060605;28;20054;-85
2021/08/29 09:40:16;;;;;;;4.90;4.50;;;;;;;;;;5043263;28;20049;-85
2021/08/29 09:42:45;;;;;;;7.30;4.78;;;;;;;;;;5060711;28;20083;-86
2021/08/29 09:45:30;;;;;;;6.28;4.53;;;;;;;;;;5043187;28;20029;-87
2021/08/29 09:48:04;;;;;;;4.88;4.47;;;;;;;;;;5060666;28;20029;-85
2021/08/29 09:50:31;;;;;;;7.82;5.38;;;;;;;;;;5043155;28;20052;-88
2021/08/29 09:53:01;;;;;;;7.75;5.72;;;;;;;;;;5060801;28;20037;-75
2021/08/29 09:55:28;;;;;;;7.57;4.40;;;;;;;;;;5060089;28;20072;-75
2021/08/29 09:57:54;;;;;;;5.45;4.53;;;;;;;;;;5059977;28;20021;-75
2021/08/29 10:00:20;;;;;;;4.30;3.90;;;;;;;;;;5059749;28;20411;-75
2021/08/29 10:02:46;;;;;;;5.28;3.90;;;;;;;;;;5060079;28;20025;-75
2021/08/29 10:05:19;;;;;;;4.50;4.10;;;;;;;;;;5059981;28;20029;-75
2021/08/29 10:08:04;;;;;;;9.30;6.68;;;;;;;;;;5059737;28;20029;-75
2021/08/29 10:10:33;;;;;;;14.98;11.40;;;;;;;;;;5059662;28;20292;-75
2021/08/29 10:12:59;;;;;;;13.32;9.25;;;;;;;;;;5041827;28;20064;-75
2021/08/29 10:15:26;;;;;;;4.85;3.70;;;;;;;;;;5059507;28;20025;-75
2021/08/29 10:17:55;;;;;;;9.77;7.28;;;;;;;;;;5059695;28;20021;-75
2021/08/29 10:20:21;;;;;;;11.30;8.73;;;;;;;;;;5059401;28;20025;-75
2021/08/29 10:22:49;;;;;;;14.90;8.82;;;;;;;;;;5059285;28;20045;-75
2021/08/29 10:25:17;;;;;;;4.63;4.05;;;;;;;;;;5059539;28;20033;-75
2021/08/29 10:27:44;;;;;;;11.18;8.38;;;;;;;;;;5059262;28;20033;-75
2021/08/29 10:30:12;;;;;;;3.55;3.22;;;;;;;;;;5041582;28;20029;-75
2021/08/29 10:32:44;;;;;;;4.75;2.80;;;;;;;;;;5059376;28;20079;-75
2021/08/29 10:35:10;;;;;;;4.68;3.30;;;;;;;;;;5059156;28;20048;-75
2021/08/29 10:37:38;;;;;;;5.32;3.78;;;;;;;;;;5059067;28;20103;-75
2021/08/29 10:40:04;;;;;;;3.00;2.50;;;;;;;;;;5058965;28;20379;-75
2021/08/29 10:42:32;;;;;;;2.90;2.60;;;;;;;;;;5041351;28;20033;-75
2021/08/29 10:44:58;;;;;;;3.97;2.85;;;;;;;;;;5058981;28;20460;-76
2021/08/29 10:47:24;;;;;;;3.20;2.47;;;;;;;;;;5039737;28;20029;-75
2021/08/29 10:49:50;;;;;;;3.85;3.08;;;;;;;;;;5040061;28;20033;-75
2021/08/29 10:52:17;;;;;;;36.83;25.73;;;;;;;;;;5058732;28;20051;-76
2021/08/29 10:54:52;;;;;;;10.15;7.45;;;;;;;;;;5058812;28;20027;-75
2021/08/29 10:57:35;;;;;;;11.05;6.55;;;;;;;;;;5041108;28;20029;-75
2021/08/29 11:00:06;;;;;;;2.40;1.60;;;;;;;;;;5058830;28;20029;-75
2021/08/29 11:02:40;;;;;;;2.50;2.30;;;;;;;;;;5058722;28;20048;-75
2021/08/29 11:05:10;;;;;;;3.22;2.40;;;;;;;;;;5058642;28;20025;-75
2021/08/29 11:07:38;;;;;;;2.90;2.40;;;;;;;;;;5058576;28;20051;-75
2021/08/29 11:10:04;;;;;;;2.97;2.30;;;;;;;;;;5058624;28;20200;-75
2021/08/29 11:12:31;;;;;;;8.57;5.72;;;;;;;;;;5040831;28;20021;-75
2021/08/29 11:14:59;;;;;;;3.47;2.55;;;;;;;;;;5056410;28;20021;-74
2021/08/29 11:17:27;;;;;;;12.60;8.77;;;;;;;;;;5039914;28;20112;-75
2021/08/29 11:19:54;;;;;;;23.35;13.60;;;;;;;;;;5056913;28;20104;-75
2021/08/29 11:22:25;;;;;;;6.97;5.22;;;;;;;;;;5039943;28;20021;-75
2021/08/29 11:24:51;;;;;;;27.73;18.73;;;;;;;;;;5040442;28;20049;-75
2021/08/29 11:27:43;;;;;;;6.90;6.10;;;;;;;;;;5057819;28;20492;-75
2021/08/29 11:30:33;;;;;;;17.02;12.23;;;;;;;;;;5067553;28;20036;-75
2021/08/29 11:32:59;;;;;;;14.80;11.55;;;;;;;;;;5067592;28;20036;-75
2021/08/29 11:35:28;;;;;;;12.38;8.70;;;;;;;;;;5077843;28;20020;-75
2021/08/29 11:38:01;;;;;;;4.03;3.50;;;;;;;;;;5078009;28;20111;-75
2021/08/29 11:40:47;;;;;;;4.50;2.35;;;;;;;;;;5077939;28;20499;-76
2021/08/29 11:43:17;;;;;;;10.43;7.18;;;;;;;;;;5077439;28;20027;-75
2021/08/29 11:45:47;;;;;;;4.60;3.00;;;;;;;;;;5059939;28;20300;-75
2021/08/29 11:48:27;;;;;;;18.92;11.27;;;;;;;;;;5077741;28;20422;-75
2021/08/29 11:50:53;;;;;;;21.45;15.75;;;;;;;;;;5060014;28;20115;-75
2021/08/29 11:53:19;;;;;;;7.18;5.75;;;;;;;;;;5042866;28;20051;-75
2021/08/29 11:55:45;;;;;;;3.38;2.20;;;;;;;;;;5077322;28;20079;-75
2021/08/29 11:58:21;;;;;;;2.38;2.17;;;;;;;;;;5059554;28;20024;-75
2021/08/29 12:00:48;;;;;;;2.20;1.70;;;;;;;;;;5077159;28;20020;-75
2021/08/29 12:03:15;;;;;;;2.67;1.83;;;;;;;;;;5077622;28;20063;-76
2021/08/29 12:05:54;;;;;;;4.50;2.25;;;;;;;;;;5059669;28;20036;-75
2021/08/29 12:08:22;;;;;;;2.47;2.22;;;;;;;;;;5077299;28;20025;-75
2021/08/29 12:10:51;;;;;;;2.72;2.22;;;;;;;;;;5077293;28;20120;-75
2021/08/29 12:13:17;;;;;;;4.10;2.80;;;;;;;;;;5046690;28;20078;-75
2021/08/29 12:15:43;;;;;;;7.05;4.60;;;;;;;;;;5059322;28;20044;-74
2021/08/29 12:18:11;;;;;;;6.22;5.45;;;;;;;;;;5077183;28;20046;-74
2021/08/29 12:20:37;;;;;;;5.15;4.28;;;;;;;;;;5059337;28;20424;-74
2021/08/29 12:23:04;;;;;;;5.63;4.60;;;;;;;;;;5076637;28;20045;-74
2021/08/29 12:25:31;;;;;;;4.70;4.03;;;;;;;;;;5053037;28;20025;-74
2021/08/29 12:28:10;;;;;;;9.13;5.18;;;;;;;;;;5036729;28;20025;-74
2021/08/29 12:30:37;;;;;;;10.50;6.50;;;;;;;;;;5052117;28;20060;-74
2021/08/29 12:33:13;;;;;;;3.42;2.90;;;;;;;;;;5031694;28;20080;-74
2021/08/29 12:35:41;;;;;;;7.85;3.55;;;;;;;;;;5036572;28;20036;-74
2021/08/29 12:38:21;;;;;;;11.98;8.80;;;;;;;;;;5036892;28;20033;-74
2021/08/29 12:40:47;;;;;;;5.97;4.82;;;;;;;;;;5043220;28;20017;-74
2021/08/29 12:43:14;;;;;;;7.32;4.95;;;;;;;;;;5059513;28;20028;-74
2021/08/29 12:45:58;;;;;;;13.55;8.43;;;;;;;;;;5076765;28;20074;-74
2021/08/29 12:48:24;;;;;;;18.45;12.50;;;;;;;;;;5044101;28;20049;-74
2021/08/29 12:50:55;;;;;;;12.07;8.20;;;;;;;;;;5056842;28;20322;-74
2021/08/29 12:53:25;;;;;;;7.57;4.03;;;;;;;;;;5056676;28;20037;-74
2021/08/29 12:55:52;;;;;;;11.70;4.75;;;;;;;;;;5038834;28;20401;-74
2021/08/29 12:58:20;;;;;;;7.53;5.03;;;;;;;;;;5038950;28;20299;-74
2021/08/29 13:00:47;;;;;;;11.13;7.63;;;;;;;;;;5056511;28;20025;-74
2021/08/29 13:03:14;;;;;;;4.72;4.03;;;;;;;;;;5056676;28;20112;-74
2021/08/29 13:05:42;;;;;;;8.88;6.68;;;;;;;;;;5056131;28;20087;-74
2021/08/29 13:08:08;;;;;;;7.88;5.88;;;;;;;;;;5056668;28;20048;-74
2021/08/29 13:10:35;;;;;;;9.77;6.50;;;;;;;;;;5041818;28;20025;-74
2021/08/29 13:13:03;;;;;;;8.27;5.25;;;;;;;;;;5060623;28;20052;-74
2021/08/29 13:15:30;;;;;;;15.80;10.25;;;;;;;;;;5041376;28;20067;-74
2021/08/29 13:17:56;;;;;;;14.38;10.25;;;;;;;;;;5060717;28;20063;-74
2021/08/29 13:20:22;;;;;;;14.00;12.02;;;;;;;;;;5042986;28;20312;-74
2021/08/29 13:22:48;;;;;;;30.65;21.50;;;;;;;;;;5060497;28;20078;-74
2021/08/29 13:25:30;;;;;;;9.52;5.95;;;;;;;;;;5060599;28;20040;-74
2021/08/29 13:28:03;;;;;;;27.35;18.45;;;;;;;;;;5060721;28;20052;-74
2021/08/29 13:30:31;;;;;;;17.20;13.63;;;;;;;;;;5035290;28;20366;-74
2021/08/29 13:32:58;;;;;;;15.35;11.00;;;;;;;;;;5042162;28;20347;-74
2021/08/29 13:35:25;;;;;;;22.85;17.25;;;;;;;;;;5060422;28;20423;-74
2021/08/29 13:37:55;;;;;;;14.25;10.40;;;;;;;;;;5060464;28;20096;-74
2021/08/29 13:40:24;;;;;;;23.83;18.35;;;;;;;;;;5060165;28;20323;-74
2021/08/29 13:42:51;;;;;;;27.35;19.77;;;;;;;;;;5060162;28;20051;-74
2021/08/29 13:45:17;;;;;;;27.73;21.13;;;;;;;;;;5060258;28;20048;-74
2021/08/29 13:47:43;;;;;;;14.75;11.18;;;;;;;;;;5059968;28;20040;-74
2021/08/29 13:50:09;;;;;;;24.25;18.58;;;;;;;;;;5060167;28;20112;-75
2021/08/29 13:52:37;;;;;;;27.38;21.08;;;;;;;;;;5060122;28;20395;-74
2021/08/29 13:55:04;;;;;;;31.08;23.40;;;;;;;;;;5059819;28;20358;-74
2021/08/29 13:57:30;;;;;;;15.10;10.52;;;;;;;;;;5059927;28;20390;-74
2021/08/29 13:59:56;;;;;;;9.82;8.52;;;;;;;;;;5042164;28;20039;-74
2021/08/29 14:02:22;;;;;;;16.75;11.85;;;;;;;;;;5059815;28;20021;-74
2021/08/29 14:04:48;;;;;;;15.35;11.43;;;;;;;;;;5059955;28;20025;-74
2021/08/29 14:07:14;;;;;;;7.88;7.07;;;;;;;;;;5059794;28;20411;-74
2021/08/29 14:09:40;;;;;;;11.13;7.53;;;;;;;;;;5059799;28;20033;-74
2021/08/29 14:12:06;;;;;;;16.40;12.27;;;;;;;;;;5059655;28;20053;-74
2021/08/29 14:14:32;;;;;;;8.40;7.55;;;;;;;;;;5059447;28;20035;-74
2021/08/29 14:16:58;;;;;;;15.48;12.77;;;;;;;;;;5059241;28;20024;-74
2021/08/29 14:19:24;;;;;;;10.35;9.05;;;;;;;;;;5059568;28;20025;-74
2021/08/29 14:21:50;;;;;;;12.77;8.60;;;;;;;;;;5040212;28;20033;-74
2021/08/29 14:24:17;;;;;;;10.52;9.43;;;;;;;;;;5059350;28;20052;-74
2021/08/29 14:26:43;;;;;;;8.32;7.38;;;;;;;;;;5059530;28;20029;-74
2021/08/29 14:29:11;;;;;;;8.68;7.35;;;;;;;;;;5059202;28;20067;-74
2021/08/29 14:31:37;;;;;;;8.48;7.15;;;;;;;;;;5041345;28;20036;-74
2021/08/29 14:34:04;;;;;;;9.52;7.32;;;;;;;;;;5059268;28;20415;-75
2021/08/29 14:36:30;;;;;;;9.48;7.43;;;;;;;;;;5058898;28;20029;-74
2021/08/29 14:38:56;;;;;;;9.25;7.30;;;;;;;;;;5057136;28;20025;-79
2021/08/29 14:41:22;;;;;;;10.43;7.45;;;;;;;;;;5058778;28;20399;-75
2021/08/29 14:43:48;;;;;;;9.77;7.15;;;;;;;;;;5058716;28;20029;-75
2021/08/29 14:46:14;;;;;;;7.20;5.95;;;;;;;;;;5058589;28;20021;-75
2021/08/29 14:48:40;;;;;;;9.80;6.88;;;;;;;;;;5058655;28;20443;-81
2021/08/29 14:51:06;;;;;;;8.02;6.03;;;;;;;;;;5058902;28;20382;-81
2021/08/29 14:53:33;;;;;;;5.95;5.35;;;;;;;;;;5058639;28;20100;-81
2021/08/29 14:55:59;;;;;;;6.93;4.53;;;;;;;;;;5058628;28;20025;-81
2021/08/29 14:58:26;;;;;;;7.30;4.60;;;;;;;;;;5040897;28;20358;-81
2021/08/29 15:00:52;;;;;;;5.75;5.05;;;;;;;;;;5058431;28;20108;-82
2021/08/29 15:03:18;;;;;;;7.05;5.15;;;;;;;;;;5058641;28;20025;-80
2021/08/29 15:05:44;;;;;;;8.02;4.88;;;;;;;;;;5040123;28;20037;-81
2021/08/29 15:08:10;;;;;;;6.38;5.35;;;;;;;;;;5059854;28;20021;-81
2021/08/29 15:10:36;;;;;;;5.53;4.97;;;;;;;;;;5078423;28;20044;-81
2021/08/29 15:13:02;;;;;;;7.38;5.68;;;;;;;;;;5077899;28;20032;-81
2021/08/29 15:15:28;;;;;;;6.95;6.07;;;;;;;;;;5060173;28;20074;-81
2021/08/29 15:17:54;;;;;;;9.20;6.53;;;;;;;;;;5078509;28;20323;-81